Latest Weather Observations for Rottnest Island

IDW60901

Issued at 12:51 pm WST Tuesday 10 December 2019 (issued every 10 minutes, with the page automatically refreshed every 10 minutes)

About weather observations | Map of Perth area stations | Latest observations for Perth area | Other Formats
Station Details ID: 009193 Name: ROTTNEST ISLAND Lat: -32.01 Lon: 115.50 Height: 43.1 m
Data from the previous 72 hours. | See also: Recent months at Rottnest Island
Date/Time
WST
Temp
°C
App
Temp
°C
Dew
Point
°C
Rel
Hum
%
Delta-T
°C
Wind Press
QNH
hPa
Press
MSL
hPa
Rain since
9am
mm
Dir  Spd
km/h
Gust
km/h
Spd
kts
Gust
kts
10/12:30pm 24.5 21.2 16.0 59 5.2 SSW 28 33 15 18 1016.9 1016.7 0.0
10/12:00pm 24.8 21.5 16.0 58 5.4 SSW 28 33 15 18 1017.3 1017.1 0.0
10/11:30am 23.4 19.8 15.2 60 4.9 SSW 28 32 15 17 1017.8 1017.6 0.0
10/11:00am 24.0 20.2 14.7 56 5.5 S 28 32 15 17 1018.2 1018.0 0.0
10/10:30am 23.2 19.4 13.7 55 5.5 S 26 32 14 17 1018.4 1018.2 0.0
10/10:00am 22.6 18.4 12.5 53 5.7 S 26 28 14 15 1018.8 1018.6 0.0
10/09:30am 21.9 17.8 11.3 51 5.9 SSE 24 28 13 15 1018.9 1018.7 0.0
10/09:00am 22.1 18.5 10.6 48 6.3 SSE 20 28 11 15 1019.2 1019.0 0.0
10/08:30am 22.2 19.0 11.3 50 6.1 SSE 19 24 10 13 1019.6 1019.4 0.0
10/08:00am 20.6 16.5 10.1 51 5.7 SE 22 26 12 14 1019.6 1019.4 0.0
10/07:30am 20.9 17.3 10.7 52 5.6 SSE 20 24 11 13 1019.9 1019.8 0.0
10/07:00am 20.0 16.0 10.4 54 5.2 SSE 22 30 12 16 1019.5 1019.3 0.0
10/06:30am 19.9 16.0 12.2 61 4.3 SSE 24 30 13 16 1019.2 1019.0 0.0
10/06:00am 19.6 16.0 10.6 56 4.9 SE 20 26 11 14 1019.1 1018.9 0.0
10/05:30am 19.2 15.2 11.7 62 4.1 SE 24 28 13 15 1018.8 1018.6 0.0
10/05:00am 19.3 14.7 11.1 59 4.5 SSE 26 30 14 16 1018.5 1018.3 0.0
10/04:30am 19.5 15.4 11.5 60 4.4 SSE 24 32 13 17 1018.4 1018.2 0.0
10/04:00am 19.6 15.6 11.9 61 4.3 SE 24 30 13 16 1018.3 1018.1 0.0
10/03:30am 20.1 15.6 12.6 62 4.2 SSE 28 32 15 17 1018.0 1017.8 0.0
10/03:00am 20.1 16.5 14.2 69 3.4 SSE 26 33 14 18 1017.8 1017.6 0.0
10/02:30am 20.0 15.4 14.6 71 3.2 SSE 32 37 17 20 1017.8 1017.6 0.0
10/02:00am 19.9 15.4 14.9 73 2.9 S 32 39 17 21 1017.9 1017.7 0.0
10/01:30am 19.7 16.8 17.1 85 1.6 S 28 33 15 18 1018.1 1017.9 0.0
10/01:00am 19.9 16.4 16.5 81 2.0 S 30 33 16 18 1018.2 1018.0 0.0
10/12:30am 19.8 15.6 16.3 80 2.1 S 33 39 18 21 1018.5 1018.3 0.0
10/12:00am 19.9 16.1 17.1 84 1.7 S 33 39 18 21 1018.9 1018.7 0.0
 
Date/Time
WST
Temp
°C
App
Temp
°C
Dew
Point
°C
Rel
Hum
%
Delta-T
°C
Wind Press
QNH
hPa
Press
MSL
hPa
Rain since
9am
mm
Dir  Spd
km/h
Gust
km/h
Spd
kts
Gust
kts
09/11:30pm 19.9 15.5 16.7 82 1.9 S 35 43 19 23 1019.2 1019.0 0.0
09/11:00pm 19.8 15.4 16.6 82 1.9 S 35 44 19 24 1019.4 1019.2 0.0
09/10:30pm 19.9 14.9 16.2 79 2.2 S 37 46 20 25 1019.8 1019.7 0.0
09/10:00pm 19.8 15.5 16.8 83 1.8 S 35 44 19 24 1020.1 1020.0 0.0
09/09:30pm 19.5 14.6 16.3 82 1.9 S 37 46 20 25 1020.1 1020.0 0.0
09/09:00pm 19.3 14.3 16.2 82 1.9 S 37 44 20 24 1020.0 1019.9 0.0
09/08:30pm 19.2 13.9 16.4 84 1.7 S 39 50 21 27 1019.9 1019.8 0.0
09/08:00pm 19.1 13.3 16.1 83 1.8 S 41 52 22 28 1019.5 1019.3 0.0
09/07:30pm 19.3 13.6 16.2 82 1.9 SSW 41 52 22 28 1019.7 1019.6 0.0
09/07:00pm 19.6 14.3 15.3 76 2.5 SSW 37 46 20 25 1019.5 1019.3 0.0
09/06:30pm 20.0 14.7 15.2 74 2.8 SSW 37 46 20 25 1019.4 1019.2 0.0
09/06:00pm 20.4 14.4 14.3 68 3.5 SSW 39 48 21 26 1018.8 1018.6 0.0
09/05:30pm 20.4 13.5 14.1 67 3.7 SSW 43 52 23 28 1018.6 1018.4 0.0
09/05:00pm 21.3 14.9 14.2 64 4.1 SSW 41 50 22 27 1018.6 1018.4 0.0
09/04:30pm 21.7 16.2 14.6 64 4.2 SSW 37 43 20 23 1018.7 1018.5 0.0
09/04:00pm 21.8 16.7 14.7 64 4.2 SSW 35 43 19 23 1018.7 1018.5 0.0
09/03:30pm 22.8 18.0 15.6 64 4.3 SSW 35 44 19 24 1019.3 1019.1 0.0
09/03:00pm 22.0 16.9 14.9 64 4.2 SW 35 43 19 23 1019.5 1019.3 0.0
09/02:30pm 22.0 17.0 13.9 60 4.7 SW 33 41 18 22 1019.8 1019.7 0.0
09/02:00pm 22.2 17.5 14.3 61 4.6 SSW 32 37 17 20 1019.8 1019.7 0.0
09/01:30pm 22.2 18.4 13.5 57 5.0 SSW 26 32 14 17 1020.3 1020.2 0.0
09/01:00pm 22.5 19.1 13.6 57 5.2 SSW 24 28 13 15 1020.5 1020.4 0.0
09/12:30pm 21.7 18.3 13.6 60 4.7 SSW 24 28 13 15 1020.8 1020.7 0.0
09/12:00pm 21.9 18.8 13.3 58 4.9 SSW 22 26 12 14 1021.2 1021.1 0.0
09/11:30am 22.2 18.7 13.5 57 5.0 SSW 24 30 13 16 1021.5 1021.4 0.0
09/11:00am 22.4 18.6 12.4 53 5.7 S 24 28 13 15 1021.8 1021.7 0.0
09/10:30am 21.7 17.8 12.0 54 5.5 S 24 28 13 15 1021.9 1021.8 0.0
09/10:00am 20.9 17.4 12.1 57 4.9 SSE 22 28 12 15 1022.2 1022.1 0.0
09/09:30am 20.1 16.0 10.2 53 5.3 SSE 22 28 12 15 1022.1 1022.0 0.0
09/09:00am 19.7 15.8 10.7 56 4.9 SSE 22 26 12 14 1022.3 1022.2 0.0
09/08:30am 19.7 16.1 10.4 55 5.0 SE 20 28 11 15 1022.1 1022.0 0.0
09/08:00am 19.0 15.3 10.3 57 4.7 SE 20 28 11 15 1021.9 1021.8 0.0
09/07:30am 18.6 15.0 10.4 59 4.4 SE 20 26 11 14 1021.7 1021.6 0.0
09/07:00am 18.5 15.0 10.1 58 4.5 SE 19 26 10 14 1021.6 1021.5 0.0
09/06:30am 18.3 15.2 10.2 59 4.3 SE 17 26 9 14 1021.4 1021.3 0.0
09/06:00am 17.9 14.7 10.0 60 4.2 SE 17 26 9 14 1021.0 1020.9 0.0
09/05:30am 17.5 14.3 9.9 61 4.0 SE 17 24 9 13 1020.8 1020.7 0.0
09/05:00am 17.3 13.9 10.4 64 3.7 SE 19 26 10 14 1020.3 1020.2 0.0
09/04:30am 17.7 13.4 10.8 64 3.7 SE 24 30 13 16 1019.9 1019.8 0.0
09/04:00am 18.1 13.4 10.7 62 4.0 SE 26 33 14 18 1019.7 1019.6 0.0
09/03:30am 18.4 13.7 10.5 60 4.2 SSE 26 32 14 17 1019.5 1019.3 0.0
09/03:00am 18.4 13.6 11.5 64 3.8 SSE 28 37 15 20 1019.3 1019.1 0.0
09/02:30am 18.4 12.8 12.2 67 3.4 SSE 33 41 18 22 1019.1 1018.9 0.0
09/02:00am 18.4 12.9 12.6 69 3.2 S 33 41 18 22 1019.1 1018.9 0.0
09/01:30am 18.4 11.9 12.8 70 3.1 S 39 46 21 25 1019.2 1019.0 0.0
09/01:00am 18.7 11.7 12.5 67 3.5 S 41 52 22 28 1019.2 1019.0 0.0
09/12:30am 18.7 12.3 14.4 76 2.5 S 41 50 22 27 1019.3 1019.1 0.0
09/12:00am 18.6 11.6 13.7 73 2.8 S 43 50 23 27 1019.4 1019.2 0.0
 
Date/Time
WST
Temp
°C
App
Temp
°C
Dew
Point
°C
Rel
Hum
%
Delta-T
°C
Wind Press
QNH
hPa
Press
MSL
hPa
Rain since
9am
mm
Dir  Spd
km/h
Gust
km/h
Spd
kts
Gust
kts
08/11:30pm 18.9 11.9 13.7 72 3.0 S 43 54 23 29 1019.5 1019.3 0.0
08/11:00pm 19.0 12.4 13.8 72 3.0 S 41 50 22 27 1019.7 1019.6 0.0
08/10:30pm 19.0 13.2 14.9 77 2.4 S 39 50 21 27 1019.9 1019.8 0.0
08/10:00pm 18.8 12.4 14.3 75 2.6 S 41 50 22 27 1020.0 1019.9 0.0
08/09:30pm 18.6 12.7 13.5 72 2.9 SSW 37 46 20 25 1020.4 1020.3 0.0
08/09:00pm 18.4 12.2 13.7 74 2.7 SSW 39 48 21 26 1020.0 1019.9 0.0
08/08:30pm 18.4 12.5 13.5 73 2.8 SSW 37 48 20 26 1019.7 1019.6 0.0
08/08:00pm 18.5 12.6 13.6 73 2.8 SSW 37 46 20 25 1019.7 1019.6 0.0
08/07:30pm 18.6 13.1 13.5 72 2.9 SSW 35 43 19 23 1019.7 1019.6 0.0
08/07:00pm 18.7 13.0 13.1 70 3.2 SSW 35 46 19 25 1019.5 1019.3 0.0
08/06:30pm 19.1 13.7 12.8 67 3.5 SSW 33 41 18 22 1019.3 1019.1 0.0
08/06:00pm 19.5 14.1 12.3 63 4.0 SSW 32 39 17 21 1019.2 1019.0 0.0
08/05:30pm 19.9 14.5 12.7 63 4.1 SSW 33 41 18 22 1018.9 1018.7 0.0
08/05:00pm 20.1 14.3 11.6 58 4.7 SSW 33 43 18 23 1018.8 1018.6 0.0
08/04:30pm 20.5 14.0 11.7 57 4.9 SSW 37 43 20 23 1018.8 1018.6 0.0
08/04:00pm 20.5 13.7 10.6 53 5.4 SSW 37 46 20 25 1019.0 1018.8 0.0
08/03:30pm 20.9 14.0 11.5 55 5.2 SW 39 44 21 24 1019.1 1018.9 0.0
08/03:00pm 21.3 14.9 11.9 55 5.3 SW 37 46 20 25 1019.1 1018.9 0.0
08/02:30pm 21.9 16.0 12.5 55 5.3 SSW 35 43 19 23 1019.2 1019.0 0.0
08/02:00pm 21.1 14.9 11.4 54 5.4 SW 35 43 19 23 1019.2 1019.0 0.0
08/01:30pm 22.2 16.5 11.3 50 6.1 SSW 32 37 17 20 1019.2 1019.0 0.0
08/01:00pm 21.5 16.3 10.3 49 6.1 SSW 28 33 15 18 1019.1 1018.9 0.0
08/12:30pm 21.0 16.3 10.5 51 5.7 SSW 26 32 14 17 1019.2 1019.0 0.0
08/12:00pm 21.1 16.9 11.2 53 5.5 S 24 30 13 16 1019.2 1019.0 0.0
08/11:30am 20.9 16.3 9.8 49 6.0 S 24 30 13 16 1019.5 1019.3 0.0
08/11:00am 21.6 16.7 10.1 48 6.2 S 26 33 14 18 1019.7 1019.6 0.0
08/10:30am 20.7 16.8 12.1 58 4.8 S 24 30 13 16 1019.5 1019.3 0.0
08/10:00am 20.3 15.5 12.8 62 4.2 S 30 35 16 19 1019.4 1019.2 0.0
08/09:30am 20.5 16.4 12.7 61 4.4 SSE 26 33 14 18 1019.2 1019.0 0.0
08/09:00am 19.6 15.5 12.8 65 3.8 SSE 26 35 14 19 1018.9 1018.7 0.8
08/08:30am 18.9 13.7 11.7 63 4.0 S 30 39 16 21 1018.7 1018.5 0.8
08/08:00am 18.4 15.0 13.7 74 2.7 SSE 24 28 13 15 1018.5 1018.3 0.8
08/07:30am 18.2 15.4 14.3 78 2.2 SSE 22 30 12 16 1018.1 1017.9 0.8
08/07:00am 18.0 15.2 14.3 79 2.1 SSE 22 30 12 16 1017.7 1017.5 0.6
08/06:30am 18.8 14.6 13.6 72 3.0 S 28 33 15 18 1017.3 1017.1 0.6
08/06:00am 17.9 14.0 13.2 74 2.6 S 26 35 14 19 1016.9 1016.7 0.6
08/05:30am 17.8 13.5 13.1 74 2.6 S 28 33 15 18 1016.4 1016.2 0.6
08/05:00am 17.8 14.0 13.5 76 2.4 S 26 33 14 18 1015.7 1015.5 0.6
08/04:30am 17.8 13.7 13.7 77 2.3 S 28 35 15 19 1015.4 1015.2 0.6
08/04:00am 17.7 13.9 13.6 77 2.3 S 26 33 14 18 1015.1 1014.9 0.6
08/03:30am 17.6 13.6 14.1 80 2.0 S 28 37 15 20 1014.8 1014.6 0.6
08/03:00am 17.8 13.5 14.3 80 2.0 S 30 37 16 20 1014.8 1014.6 0.6
08/02:30am 17.7 14.0 15.1 85 1.5 SSW 28 33 15 18 1014.7 1014.5 0.6
08/02:00am 17.7 14.4 15.1 85 1.5 SSW 26 32 14 17 1014.8 1014.6 0.6
08/01:30am 17.5 13.5 15.1 86 1.4 SSW 30 35 16 19 1014.8 1014.6 0.6
08/01:00am 17.5 14.8 15.5 88 1.2 S 24 28 13 15 1015.0 1014.8 0.6
08/12:30am 17.1 14.2 16.0 93 0.6 S 26 32 14 17 1014.9 1014.7 0.6
08/12:00am 17.3 13.9 16.7 96 0.4 SSW 30 37 16 20 1015.2 1015.0 0.4
 
Date/Time
WST
Temp
°C
App
Temp
°C
Dew
Point
°C
Rel
Hum
%
Delta-T
°C
Wind Press
QNH
hPa
Press
MSL
hPa
Rain since
9am
mm
Dir  Spd
km/h
Gust
km/h
Spd
kts
Gust
kts
07/11:47pm 17.8 14.4 15.8 88 1.2 SW 28 44 15 24 1015.1 1014.9 0.0
07/11:30pm 18.7 16.4 14.2 75 2.6 SW 19 20 10 11 1015.3 1015.1 0.0
07/11:00pm 18.6 16.2 14.5 77 2.4 SW 20 26 11 14 1015.4 1015.2 0.0
07/10:30pm 18.7 16.6 15.2 80 2.1 SW 20 28 11 15 1015.4 1015.2 0.0
07/10:00pm 19.4 16.1 14.0 71 3.1 WSW 24 32 13 17 1015.2 1015.0 0.0
07/09:30pm 19.2 15.8 13.6 70 3.2 WSW 24 32 13 17 1014.9 1014.7 0.0
07/09:00pm 19.1 15.7 13.7 71 3.1 WSW 24 30 13 16 1014.7 1014.5 0.0
07/08:30pm 18.9 15.8 13.3 70 3.2 WSW 22 28 12 15 1014.4 1014.2 0.0
07/08:00pm 18.9 15.0 12.2 65 3.7 WSW 24 33 13 18 1014.1 1013.9 0.0
07/07:30pm 19.3 16.2 13.5 69 3.3 WSW 22 32 12 17 1013.6 1013.4 0.0
07/07:00pm 19.5 15.9 13.2 67 3.6 WSW 24 33 13 18 1013.4 1013.2 0.0
07/06:30pm 20.1 15.8 12.1 60 4.5 W 26 35 14 19 1012.9 1012.7 0.0
07/06:00pm 20.1 16.0 12.8 63 4.1 WSW 26 33 14 18 1012.5 1012.3 0.0
07/05:30pm 20.6 16.1 12.6 60 4.5 WSW 28 41 15 22 1012.0 1011.8 0.0
07/05:00pm 21.6 17.1 12.5 56 5.2 W 28 35 15 19 1011.8 1011.6 0.0
07/04:30pm 22.2 17.6 12.2 53 5.7 W 28 37 15 20 1011.6 1011.4 0.0
07/04:00pm 21.8 17.2 13.4 59 4.8 W 30 37 16 20 1011.5 1011.3 0.0
07/03:30pm 21.2 16.6 13.4 61 4.5 W 30 39 16 21 1011.4 1011.2 0.0
07/03:00pm 21.6 17.5 15.0 66 3.9 W 30 37 16 20 1011.2 1011.0 0.0
07/02:30pm 21.6 18.2 15.7 69 3.5 W 28 35 15 19 1011.1 1010.9 0.0
07/02:00pm 22.0 18.5 15.4 66 3.9 W 28 33 15 18 1010.9 1010.7 0.0
07/01:30pm 21.6 17.9 15.0 66 3.9 W 28 39 15 21 1010.7 1010.5 0.0
07/01:00pm 21.8 17.9 15.4 67 3.8 W 30 41 16 22 1010.6 1010.4 0.0

Latest Capital City Observations: Canberra | Sydney | Melbourne | Brisbane | Adelaide | Perth | Hobart | Darwin

Other formats

Comma delimited format used in spreadsheet applications
http://www.bom.gov.au/fwo/IDW60901/IDW60901.94602.axf

JavaScript Object Notation format (JSON) in row-major order
http://www.bom.gov.au/fwo/IDW60901/IDW60901.94602.json

Data quality

Most of these data are generated automatically and are frequently updated. Quality checks on data are not normally performed. It is possible for incorrect values to appear. Refer to information at About Latest Weather Observations and please check the disclaimer before using these data.